Time;durP1;ratioP1;P1;durP2;ratioP2;P2;SDS_P1;SDS_P2;PMS_P1;PMS_P2;Temp;Humidity;BMP_temperature;BMP_pressure;BME280_temperature;BME280_humidity;BME280_pressure;Samples;Min_cycle;Max_cycle;Signal;HPM_P1;HPM_P2
2023/07/18 01:35:14;;;;;;;1999.90;999.90;;;;;;;;;;5913531;23;20336;-73
2023/07/18 01:37:59;;;;;;;1999.90;999.90;;;;;;;;;;4951233;29;20212;-73
2023/07/18 01:40:44;;;;;;;1999.90;999.90;;;;;;;;;;4947046;29;20581;-74
2023/07/18 01:43:29;;;;;;;1999.90;999.90;;;;;;;;;;4944491;29;20211;-73
2023/07/18 01:46:13;;;;;;;1999.90;999.90;;;;;;;;;;4952513;28;20232;-73
2023/07/18 01:48:58;;;;;;;1999.90;999.90;;;;;;;;;;4952444;29;20690;-72
2023/07/18 01:51:44;;;;;;;1999.90;999.90;;;;;;;;;;4950185;29;20216;-72
2023/07/18 01:54:29;;;;;;;1999.90;999.90;;;;;;;;;;4951217;29;20300;-72
2023/07/18 01:57:14;;;;;;;1999.90;999.90;;;;;;;;;;4953595;29;20271;-74
2023/07/18 02:00:00;;;;;;;1999.90;999.90;;;;;;;;;;4951416;29;20212;-73
2023/07/18 02:02:47;;;;;;;1999.90;999.90;;;;;;;;;;4948325;29;20698;-73
2023/07/18 02:05:33;;;;;;;1999.90;999.90;;;;;;;;;;4947686;28;20358;-73
2023/07/18 02:08:19;;;;;;;1999.90;999.90;;;;;;;;;;4948457;29;20723;-73
2023/07/18 02:11:04;;;;;;;1999.90;999.90;;;;;;;;;;4949697;29;20213;-72
2023/07/18 02:13:49;;;;;;;1999.90;999.90;;;;;;;;;;4948653;29;20213;-73
2023/07/18 02:16:34;;;;;;;1999.90;999.90;;;;;;;;;;4949250;29;20228;-73
2023/07/18 02:19:19;;;;;;;1999.90;999.90;;;;;;;;;;4948460;29;20213;-74
2023/07/18 02:22:04;;;;;;;1999.90;999.90;;;;;;;;;;4951406;29;20344;-73
2023/07/18 02:24:50;;;;;;;1999.90;999.90;;;;;;;;;;4947600;29;20221;-73
2023/07/18 02:27:38;;;;;;;1999.90;999.90;;;;;;;;;;4944332;29;20805;-73
2023/07/18 02:30:23;;;;;;;1999.90;999.90;;;;;;;;;;4952262;29;20312;-73
2023/07/18 02:33:09;;;;;;;1999.90;999.90;;;;;;;;;;4953315;29;20691;-73
2023/07/18 02:35:54;;;;;;;1999.90;999.90;;;;;;;;;;4953682;28;20240;-74
2023/07/18 02:38:39;;;;;;;1999.90;999.90;;;;;;;;;;4949842;29;20216;-74
2023/07/18 02:41:25;;;;;;;1999.90;999.90;;;;;;;;;;4955902;29;20220;-73
2023/07/18 02:44:10;;;;;;;1999.90;999.90;;;;;;;;;;4955899;29;20824;-74
2023/07/18 02:46:55;;;;;;;1999.90;999.90;;;;;;;;;;4956717;29;20248;-73
2023/07/18 02:49:40;;;;;;;1999.90;999.90;;;;;;;;;;4955505;29;20200;-72
2023/07/18 02:52:25;;;;;;;1999.90;999.90;;;;;;;;;;4957018;29;20208;-74
2023/07/18 02:55:10;;;;;;;1999.90;999.90;;;;;;;;;;4955808;29;20232;-73
2023/07/18 02:57:56;;;;;;;1999.90;999.90;;;;;;;;;;4951488;29;20212;-74
2023/07/18 03:00:41;;;;;;;1999.90;999.90;;;;;;;;;;4955101;29;20444;-73
2023/07/18 03:03:26;;;;;;;1999.90;999.90;;;;;;;;;;4956714;29;20260;-73
2023/07/18 03:06:11;;;;;;;1999.90;999.90;;;;;;;;;;4953143;28;20225;-73
2023/07/18 03:08:56;;;;;;;1999.90;999.90;;;;;;;;;;4955605;29;20947;-74
2023/07/18 03:11:41;;;;;;;1999.90;999.90;;;;;;;;;;4949091;29;20211;-74
2023/07/18 03:14:27;;;;;;;1999.90;999.90;;;;;;;;;;4955501;29;20242;-74
2023/07/18 03:17:12;;;;;;;1999.90;999.90;;;;;;;;;;4956182;29;20216;-74
2023/07/18 03:19:58;;;;;;;1999.90;999.90;;;;;;;;;;4954168;29;20440;-74
2023/07/18 03:22:43;;;;;;;1999.90;999.90;;;;;;;;;;4949239;29;20212;-72
2023/07/18 03:25:29;;;;;;;1999.90;999.90;;;;;;;;;;4954458;29;20240;-73
2023/07/18 03:28:13;;;;;;;1999.90;999.90;;;;;;;;;;4955074;29;20201;-72
2023/07/18 03:31:00;;;;;;;1999.90;999.90;;;;;;;;;;4955864;29;20249;-73
2023/07/18 03:33:45;;;;;;;1999.90;999.90;;;;;;;;;;4955017;29;20263;-72
2023/07/18 03:36:30;;;;;;;1999.90;999.90;;;;;;;;;;4955931;28;20660;-73
2023/07/18 03:39:15;;;;;;;1999.90;999.90;;;;;;;;;;4954859;29;20800;-72
2023/07/18 03:42:00;;;;;;;1999.90;999.90;;;;;;;;;;4956087;29;20228;-73
2023/07/18 03:44:45;;;;;;;1999.90;999.90;;;;;;;;;;4954679;28;20215;-73
2023/07/18 03:47:32;;;;;;;1999.90;999.90;;;;;;;;;;4955220;28;20292;-73
2023/07/18 03:50:18;;;;;;;1999.90;999.90;;;;;;;;;;4952336;29;20295;-73
2023/07/18 03:53:03;;;;;;;1999.90;999.90;;;;;;;;;;4954002;29;20237;-74
2023/07/18 03:55:48;;;;;;;1999.90;999.90;;;;;;;;;;4955223;28;20412;-73
2023/07/18 03:58:32;;;;;;;1999.90;999.90;;;;;;;;;;4952892;29;20696;-73
2023/07/18 04:01:17;;;;;;;1999.90;999.90;;;;;;;;;;4955518;29;20212;-73
2023/07/18 04:04:04;;;;;;;1999.90;999.90;;;;;;;;;;4954541;29;20337;-74
2023/07/18 04:06:49;;;;;;;1999.90;999.90;;;;;;;;;;4948347;29;20732;-74
2023/07/18 04:09:34;;;;;;;1999.90;999.90;;;;;;;;;;4954319;29;20292;-73
2023/07/18 04:12:19;;;;;;;1999.90;999.90;;;;;;;;;;4952065;29;20216;-73
2023/07/18 04:15:05;;;;;;;1999.90;999.90;;;;;;;;;;4949584;29;20504;-74
2023/07/18 04:17:50;;;;;;;1999.90;999.90;;;;;;;;;;4939783;29;20215;-73
2023/07/18 04:20:36;;;;;;;1999.90;999.90;;;;;;;;;;4955042;29;20212;-73
2023/07/18 04:23:21;;;;;;;1999.90;999.90;;;;;;;;;;4953928;29;20248;-74
2023/07/18 04:26:09;;;;;;;1999.90;999.90;;;;;;;;;;4955091;29;20240;-73
2023/07/18 04:28:54;;;;;;;1999.90;999.90;;;;;;;;;;4953976;29;20236;-74
2023/07/18 04:31:39;;;;;;;1999.90;999.90;;;;;;;;;;4955335;29;20276;-74
2023/07/18 04:34:24;;;;;;;1999.90;999.90;;;;;;;;;;4954697;29;20575;-74
2023/07/18 04:37:10;;;;;;;1999.90;999.90;;;;;;;;;;4953741;29;20300;-73
2023/07/18 04:39:55;;;;;;;1999.90;999.90;;;;;;;;;;4950939;29;20332;-73
2023/07/18 04:42:42;;;;;;;1999.90;999.90;;;;;;;;;;4954910;29;20204;-74
2023/07/18 04:45:26;;;;;;;1999.90;999.90;;;;;;;;;;4954578;28;20348;-73
2023/07/18 04:48:12;;;;;;;1999.90;999.90;;;;;;;;;;4954773;29;20224;-73
2023/07/18 04:50:58;;;;;;;1999.90;999.90;;;;;;;;;;4953933;29;20500;-74
2023/07/18 04:53:45;;;;;;;1999.90;999.90;;;;;;;;;;4954493;29;20580;-73
2023/07/18 04:56:29;;;;;;;1999.90;999.90;;;;;;;;;;4951666;28;20235;-73
2023/07/18 04:59:14;;;;;;;1999.90;999.90;;;;;;;;;;4946586;29;20209;-72
2023/07/18 05:01:59;;;;;;;1999.90;999.90;;;;;;;;;;4947836;29;20216;-73
2023/07/18 05:04:44;;;;;;;1999.90;999.90;;;;;;;;;;4953618;29;20215;-73
2023/07/18 05:07:30;;;;;;;1999.90;999.90;;;;;;;;;;4948065;29;20233;-70
2023/07/18 05:10:17;;;;;;;1999.90;999.90;;;;;;;;;;4947710;29;20488;-74
2023/07/18 05:13:01;;;;;;;1999.90;999.90;;;;;;;;;;4950109;29;20212;-74
2023/07/18 05:15:47;;;;;;;1999.90;999.90;;;;;;;;;;4953608;28;20299;-71
2023/07/18 05:18:32;;;;;;;1999.90;999.90;;;;;;;;;;4954271;29;20356;-72
2023/07/18 05:21:17;;;;;;;1999.90;999.90;;;;;;;;;;4954455;29;20217;-71
2023/07/18 05:24:02;;;;;;;1999.90;999.90;;;;;;;;;;4948339;29;20208;-73
2023/07/18 05:26:48;;;;;;;1999.90;999.90;;;;;;;;;;4952188;28;20229;-73
2023/07/18 05:29:33;;;;;;;1999.90;999.90;;;;;;;;;;4949499;29;20232;-73
2023/07/18 05:32:18;;;;;;;1999.90;999.90;;;;;;;;;;4948834;29;20212;-73
2023/07/18 05:35:03;;;;;;;1999.90;999.90;;;;;;;;;;4951257;29;20291;-74
2023/07/18 05:37:48;;;;;;;1999.90;999.90;;;;;;;;;;4951921;29;20209;-73
2023/07/18 05:40:33;;;;;;;1999.90;999.90;;;;;;;;;;4953480;29;20208;-73
2023/07/18 05:43:20;;;;;;;1999.90;999.90;;;;;;;;;;4953508;29;20216;-71
2023/07/18 05:46:05;;;;;;;1999.90;999.90;;;;;;;;;;4945416;28;20229;-71
2023/07/18 05:48:50;;;;;;;1999.90;999.90;;;;;;;;;;4949529;29;20462;-71
2023/07/18 05:51:35;;;;;;;1999.90;999.90;;;;;;;;;;4952933;29;20630;-70
2023/07/18 05:54:20;;;;;;;1999.90;999.90;;;;;;;;;;4951608;29;20584;-70
2023/07/18 05:57:05;;;;;;;1999.90;999.90;;;;;;;;;;4947880;29;20216;-73
2023/07/18 05:59:51;;;;;;;1999.90;999.90;;;;;;;;;;4950732;29;20222;-73
2023/07/18 06:02:37;;;;;;;1999.90;999.90;;;;;;;;;;4949484;29;20859;-71
2023/07/18 06:05:22;;;;;;;1999.90;999.90;;;;;;;;;;4947867;29;20945;-70
2023/07/18 06:08:07;;;;;;;1999.90;999.90;;;;;;;;;;4948144;29;20345;-73
2023/07/18 06:10:56;;;;;;;1999.90;999.90;;;;;;;;;;4951022;29;20209;-73
2023/07/18 06:13:42;;;;;;;1999.90;999.90;;;;;;;;;;4957147;29;20217;-72
2023/07/18 06:16:28;;;;;;;1999.90;999.90;;;;;;;;;;4947296;29;20809;-73
2023/07/18 06:19:14;;;;;;;1999.90;999.90;;;;;;;;;;4953512;29;20341;-71
2023/07/18 06:21:59;;;;;;;1999.90;999.90;;;;;;;;;;4956742;29;20705;-73
2023/07/18 06:24:44;;;;;;;1999.90;999.90;;;;;;;;;;4953795;29;20360;-72
2023/07/18 06:27:31;;;;;;;1999.90;999.90;;;;;;;;;;4952563;29;20549;-73
2023/07/18 06:30:16;;;;;;;1999.90;999.90;;;;;;;;;;4956338;29;20239;-71
2023/07/18 06:33:03;;;;;;;1999.90;999.90;;;;;;;;;;4953608;29;20229;-73
2023/07/18 06:35:52;;;;;;;1999.90;999.90;;;;;;;;;;4954465;29;20259;-73
2023/07/18 06:38:38;;;;;;;1999.90;999.90;;;;;;;;;;4953882;29;20317;-73
2023/07/18 06:41:23;;;;;;;1999.90;999.90;;;;;;;;;;4953862;29;20364;-73
2023/07/18 06:44:10;;;;;;;1999.90;999.90;;;;;;;;;;4951874;29;20706;-73
2023/07/18 06:46:55;;;;;;;1999.90;999.90;;;;;;;;;;4952251;29;20732;-72
2023/07/18 06:49:41;;;;;;;1999.90;999.90;;;;;;;;;;4954997;29;20248;-73
2023/07/18 06:52:26;;;;;;;1999.90;999.90;;;;;;;;;;4954719;29;20713;-73
2023/07/18 06:55:12;;;;;;;1999.90;999.90;;;;;;;;;;4955645;29;20240;-73
2023/07/18 06:57:57;;;;;;;1999.90;999.90;;;;;;;;;;4950043;29;20286;-72
2023/07/18 07:00:41;;;;;;;1999.90;999.90;;;;;;;;;;4949648;29;20404;-73
2023/07/18 07:03:26;;;;;;;1999.90;999.90;;;;;;;;;;4956093;29;20728;-73
2023/07/18 07:06:13;;;;;;;1999.90;999.90;;;;;;;;;;4952968;29;20248;-73
2023/07/18 07:08:58;;;;;;;1999.90;999.90;;;;;;;;;;4953912;29;20722;-73
2023/07/18 07:11:43;;;;;;;1999.90;999.90;;;;;;;;;;4952413;29;20224;-73
2023/07/18 07:14:28;;;;;;;1999.90;999.90;;;;;;;;;;4949640;29;20581;-73
2023/07/18 07:17:13;;;;;;;1999.90;999.90;;;;;;;;;;4953882;29;20672;-72
2023/07/18 07:19:58;;;;;;;1999.90;999.90;;;;;;;;;;4950238;29;20228;-73
2023/07/18 07:22:46;;;;;;;1999.90;999.90;;;;;;;;;;4954786;28;20224;-74
2023/07/18 07:25:31;;;;;;;1999.90;999.90;;;;;;;;;;4950397;29;20821;-74
2023/07/18 07:28:16;;;;;;;1999.90;999.90;;;;;;;;;;4949876;29;20356;-74
2023/07/18 07:31:03;;;;;;;1999.90;999.90;;;;;;;;;;4944485;29;20584;-73
2023/07/18 07:33:47;;;;;;;1999.90;999.90;;;;;;;;;;4949243;29;20745;-74
2023/07/18 07:36:33;;;;;;;1999.90;999.90;;;;;;;;;;4939066;29;20421;-74
2023/07/18 07:39:19;;;;;;;1999.90;999.90;;;;;;;;;;4950114;29;20213;-74
2023/07/18 07:42:04;;;;;;;1999.90;999.90;;;;;;;;;;4945128;29;20209;-74
2023/07/18 07:44:50;;;;;;;1999.90;999.90;;;;;;;;;;4950091;28;20700;-73
2023/07/18 07:47:35;;;;;;;1999.90;999.90;;;;;;;;;;4951883;29;20341;-74
2023/07/18 07:50:21;;;;;;;1999.90;999.90;;;;;;;;;;4947842;29;20329;-74
2023/07/18 07:53:05;;;;;;;1999.90;999.90;;;;;;;;;;4955518;29;20219;-73
2023/07/18 07:55:52;;;;;;;1999.90;999.90;;;;;;;;;;4947156;29;20448;-74
2023/07/18 07:58:37;;;;;;;1999.90;999.90;;;;;;;;;;4944543;29;20217;-73
2023/07/18 08:01:22;;;;;;;1999.90;999.90;;;;;;;;;;4947738;29;20228;-74
2023/07/18 08:04:08;;;;;;;1999.90;999.90;;;;;;;;;;4942877;29;20213;-74
2023/07/18 08:06:53;;;;;;;1999.90;999.90;;;;;;;;;;4953568;29;20237;-74
2023/07/18 08:09:39;;;;;;;1999.90;999.90;;;;;;;;;;4953523;29;20213;-74
2023/07/18 08:12:26;;;;;;;1999.90;999.90;;;;;;;;;;4948291;29;20213;-73
2023/07/18 08:15:11;;;;;;;1999.90;999.90;;;;;;;;;;4938206;29;20225;-73
2023/07/18 08:17:57;;;;;;;1999.90;999.90;;;;;;;;;;4947757;29;20275;-74
2023/07/18 08:20:42;;;;;;;1999.90;999.90;;;;;;;;;;4945823;28;20586;-73
2023/07/18 08:23:27;;;;;;;1999.90;999.90;;;;;;;;;;4951128;29;20217;-73
2023/07/18 08:26:12;;;;;;;1999.90;999.90;;;;;;;;;;4944151;29;20320;-74
2023/07/18 08:28:58;;;;;;;1999.90;999.90;;;;;;;;;;4951826;29;20268;-73
2023/07/18 08:31:43;;;;;;;1999.90;999.90;;;;;;;;;;4952867;29;20593;-74
2023/07/18 08:34:28;;;;;;;1999.90;999.90;;;;;;;;;;4954208;29;20579;-74
2023/07/18 08:37:13;;;;;;;1999.90;999.90;;;;;;;;;;4952337;29;20208;-74
2023/07/18 08:39:59;;;;;;;1999.90;999.90;;;;;;;;;;4951149;29;20213;-74
2023/07/18 08:42:44;;;;;;;1999.90;999.90;;;;;;;;;;4949080;29;20348;-74
2023/07/18 08:45:32;;;;;;;1999.90;999.90;;;;;;;;;;4951034;28;20276;-74
2023/07/18 08:48:17;;;;;;;1999.90;999.90;;;;;;;;;;4942945;29;20440;-74
2023/07/18 08:51:02;;;;;;;1999.90;999.90;;;;;;;;;;4935664;29;20225;-75
2023/07/18 08:53:47;;;;;;;1999.90;999.90;;;;;;;;;;4947431;29;20291;-74
2023/07/18 08:56:32;;;;;;;1999.90;999.90;;;;;;;;;;4935031;29;20313;-74
2023/07/18 08:59:17;;;;;;;1999.90;999.90;;;;;;;;;;4938324;29;20209;-74
2023/07/18 09:02:04;;;;;;;1999.90;999.90;;;;;;;;;;4943903;29;20280;-74
2023/07/18 09:04:50;;;;;;;1999.90;999.90;;;;;;;;;;4934883;29;20870;-74
2023/07/18 09:07:36;;;;;;;1999.90;999.90;;;;;;;;;;4942748;29;20586;-74
2023/07/18 09:10:21;;;;;;;1999.90;999.90;;;;;;;;;;4934508;29;20221;-74
2023/07/18 09:13:07;;;;;;;1999.90;999.90;;;;;;;;;;4942755;29;20217;-74
2023/07/18 09:15:52;;;;;;;1999.90;999.90;;;;;;;;;;4934805;29;20309;-74
2023/07/18 09:18:38;;;;;;;1999.90;999.90;;;;;;;;;;4944181;29;20232;-74
2023/07/18 09:21:24;;;;;;;1999.90;999.90;;;;;;;;;;4946493;29;20313;-74
2023/07/18 09:24:09;;;;;;;1999.90;999.90;;;;;;;;;;4942609;29;20253;-74
2023/07/18 09:26:56;;;;;;;1999.90;999.90;;;;;;;;;;4937593;29;20237;-74
2023/07/18 09:29:43;;;;;;;1999.90;999.90;;;;;;;;;;4949300;29;20236;-75
2023/07/18 09:32:28;;;;;;;1999.90;999.90;;;;;;;;;;4952835;29;20275;-74
2023/07/18 09:35:15;;;;;;;1999.90;999.90;;;;;;;;;;4947582;29;20244;-74
2023/07/18 09:38:00;;;;;;;1999.90;999.90;;;;;;;;;;4950368;29;20211;-74
2023/07/18 09:40:45;;;;;;;1999.90;999.90;;;;;;;;;;4939947;29;20225;-74
2023/07/18 09:43:30;;;;;;;1999.90;999.90;;;;;;;;;;4945349;29;20471;-74
2023/07/18 09:46:15;;;;;;;1999.90;999.90;;;;;;;;;;4947037;29;20260;-74
2023/07/18 09:49:00;;;;;;;1999.90;999.90;;;;;;;;;;4952174;29;20821;-73
2023/07/18 09:51:49;;;;;;;1999.90;999.90;;;;;;;;;;4953023;29;20364;-73
2023/07/18 09:54:36;;;;;;;1999.90;999.90;;;;;;;;;;4949633;29;20213;-73
2023/07/18 09:57:22;;;;;;;1999.90;999.90;;;;;;;;;;4947474;29;20209;-74
2023/07/18 10:00:10;;;;;;;1999.90;999.90;;;;;;;;;;4953058;29;20204;-74
2023/07/18 10:02:56;;;;;;;1999.90;999.90;;;;;;;;;;4955296;29;20337;-74
2023/07/18 10:05:41;;;;;;;1999.90;999.90;;;;;;;;;;4949976;29;20240;-73
2023/07/18 10:08:27;;;;;;;1999.90;999.90;;;;;;;;;;4952395;29;20283;-74
2023/07/18 10:11:12;;;;;;;1999.90;999.90;;;;;;;;;;4952620;29;20215;-74
2023/07/18 10:14:13;;;;;;;1999.90;999.90;;;;;;;;;;4952640;29;20212;-74
2023/07/18 10:17:04;;;;;;;1999.90;999.90;;;;;;;;;;4952525;29;20763;-74
2023/07/18 10:19:49;;;;;;;1999.90;999.90;;;;;;;;;;4952661;29;20205;-74
2023/07/18 10:22:34;;;;;;;1999.90;999.90;;;;;;;;;;4950557;29;20268;-76
2023/07/18 10:25:21;;;;;;;1999.90;999.90;;;;;;;;;;4949858;29;20313;-74
2023/07/18 10:28:06;;;;;;;1999.90;999.90;;;;;;;;;;4952612;29;20212;-74
2023/07/18 10:30:51;;;;;;;1999.90;999.90;;;;;;;;;;4952639;29;20217;-74
2023/07/18 10:33:41;;;;;;;1999.90;999.90;;;;;;;;;;4944058;29;20216;-76
2023/07/18 10:36:26;;;;;;;1999.90;999.90;;;;;;;;;;4949769;29;20298;-74
2023/07/18 10:39:12;;;;;;;1999.90;999.90;;;;;;;;;;4947702;29;20413;-73
2023/07/18 10:42:05;;;;;;;1999.90;999.90;;;;;;;;;;4947085;29;20213;-74
2023/07/18 10:44:53;;;;;;;1999.90;999.90;;;;;;;;;;4943853;28;20333;-74
2023/07/18 10:47:38;;;;;;;1999.90;999.90;;;;;;;;;;4950148;29;20212;-74
2023/07/18 10:50:23;;;;;;;1999.90;999.90;;;;;;;;;;4940620;29;20626;-73
2023/07/18 10:53:10;;;;;;;1999.90;999.90;;;;;;;;;;4940869;29;20804;-75
2023/07/18 10:55:57;;;;;;;1999.90;999.90;;;;;;;;;;4944749;28;20721;-74
2023/07/18 10:58:44;;;;;;;1999.90;999.90;;;;;;;;;;4944781;29;20217;-74
2023/07/18 11:01:29;;;;;;;1999.90;999.90;;;;;;;;;;4940672;29;20333;-75
2023/07/18 11:04:14;;;;;;;1999.90;999.90;;;;;;;;;;4951337;29;20227;-73
2023/07/18 11:06:59;;;;;;;1999.90;999.90;;;;;;;;;;4952492;29;20740;-75
2023/07/18 11:09:44;;;;;;;1999.90;999.90;;;;;;;;;;4948267;29;20237;-75
2023/07/18 11:12:29;;;;;;;1999.90;999.90;;;;;;;;;;4947602;29;20527;-77
2023/07/18 11:15:15;;;;;;;1999.90;999.90;;;;;;;;;;4951880;29;20243;-77
2023/07/18 11:18:00;;;;;;;1999.90;999.90;;;;;;;;;;4948296;29;20227;-76
2023/07/18 11:20:45;;;;;;;1999.90;999.90;;;;;;;;;;4953365;29;20685;-74
2023/07/18 11:23:31;;;;;;;1999.90;999.90;;;;;;;;;;4955526;29;20275;-75
2023/07/18 11:26:17;;;;;;;1999.90;999.90;;;;;;;;;;4936851;29;20284;-76
2023/07/18 11:29:04;;;;;;;1999.90;999.90;;;;;;;;;;4949347;29;20241;-75
2023/07/18 11:31:52;;;;;;;1999.90;999.90;;;;;;;;;;4950550;29;20489;-76
2023/07/18 11:34:37;;;;;;;1999.90;999.90;;;;;;;;;;4953420;29;20212;-77
2023/07/18 11:37:22;;;;;;;1999.90;999.90;;;;;;;;;;4952105;29;20713;-77
2023/07/18 11:40:08;;;;;;;1999.90;999.90;;;;;;;;;;4954643;29;20203;-76
2023/07/18 11:42:55;;;;;;;1999.90;999.90;;;;;;;;;;4955442;29;20289;-76
2023/07/18 11:45:40;;;;;;;1999.90;999.90;;;;;;;;;;4951733;29;20241;-76
2023/07/18 11:48:27;;;;;;;1999.90;999.90;;;;;;;;;;4951702;29;20225;-75
2023/07/18 11:51:13;;;;;;;1999.90;999.90;;;;;;;;;;4954733;29;20205;-76
2023/07/18 11:53:58;;;;;;;1999.90;999.90;;;;;;;;;;4955062;29;20870;-75
2023/07/18 11:56:42;;;;;;;1999.90;999.90;;;;;;;;;;4936124;29;20233;-77
2023/07/18 11:59:27;;;;;;;1999.90;999.90;;;;;;;;;;4940131;29;20579;-75
2023/07/18 12:02:12;;;;;;;1999.90;999.90;;;;;;;;;;4954261;29;20216;-77
2023/07/18 12:04:59;;;;;;;1999.90;999.90;;;;;;;;;;4954145;28;20232;-77
2023/07/18 12:07:45;;;;;;;1999.90;999.90;;;;;;;;;;4947013;28;20440;-76
2023/07/18 12:10:32;;;;;;;1999.90;999.90;;;;;;;;;;4948703;29;20325;-75
2023/07/18 12:13:17;;;;;;;1999.90;999.90;;;;;;;;;;4951762;29;20275;-76
2023/07/18 12:16:02;;;;;;;1999.90;999.90;;;;;;;;;;4953336;29;20311;-75
2023/07/18 12:18:46;;;;;;;1999.90;999.90;;;;;;;;;;4953526;29;20685;-74
2023/07/18 12:21:33;;;;;;;1999.90;999.90;;;;;;;;;;4949770;29;20229;-77
2023/07/18 12:24:18;;;;;;;1999.90;999.90;;;;;;;;;;4943726;29;20213;-76
2023/07/18 12:27:03;;;;;;;1999.90;999.90;;;;;;;;;;4951833;29;20236;-79
2023/07/18 12:29:49;;;;;;;1999.90;999.90;;;;;;;;;;4945581;29;20236;-77
2023/07/18 12:32:33;;;;;;;1999.90;999.90;;;;;;;;;;4946712;29;20413;-77
2023/07/18 12:35:18;;;;;;;1999.90;999.90;;;;;;;;;;4950438;29;20240;-77
2023/07/18 12:38:06;;;;;;;1999.90;999.90;;;;;;;;;;4951209;29;20216;-76
2023/07/18 12:40:51;;;;;;;1999.90;999.90;;;;;;;;;;4954317;29;20681;-76
2023/07/18 12:43:36;;;;;;;1999.90;999.90;;;;;;;;;;4947894;29;20215;-77
2023/07/18 12:46:26;;;;;;;1999.90;999.90;;;;;;;;;;4953390;29;20229;-76
2023/07/18 12:49:11;;;;;;;1999.90;999.90;;;;;;;;;;4950947;29;20317;-78
2023/07/18 12:51:56;;;;;;;1999.90;999.90;;;;;;;;;;4951757;29;20682;-77
2023/07/18 12:54:42;;;;;;;1999.90;999.90;;;;;;;;;;4948939;29;20225;-77
2023/07/18 12:57:27;;;;;;;1999.90;999.90;;;;;;;;;;4950368;29;20224;-77
2023/07/18 13:00:13;;;;;;;1999.90;999.90;;;;;;;;;;4950814;29;20545;-77
2023/07/18 13:02:58;;;;;;;1999.90;999.90;;;;;;;;;;4953536;29;20212;-78
2023/07/18 13:05:43;;;;;;;1999.90;999.90;;;;;;;;;;4952723;29;20737;-78
2023/07/18 13:08:28;;;;;;;1999.90;999.90;;;;;;;;;;4951630;29;20212;-78
2023/07/18 13:11:15;;;;;;;1999.90;999.90;;;;;;;;;;4949740;29;20260;-76
2023/07/18 13:14:00;;;;;;;1999.90;999.90;;;;;;;;;;4951081;29;20325;-78
2023/07/18 13:16:44;;;;;;;1999.90;999.90;;;;;;;;;;4954177;28;20303;-77
2023/07/18 13:19:29;;;;;;;1999.90;999.90;;;;;;;;;;4953463;28;20208;-78
2023/07/18 13:22:15;;;;;;;1999.90;999.90;;;;;;;;;;4953428;29;20216;-78
2023/07/18 13:25:00;;;;;;;1999.90;999.90;;;;;;;;;;4949056;29;20440;-77
2023/07/18 13:27:46;;;;;;;1999.90;999.90;;;;;;;;;;4945669;29;20217;-78
2023/07/18 13:30:31;;;;;;;1999.90;999.90;;;;;;;;;;4950570;28;20231;-78
2023/07/18 13:33:16;;;;;;;1999.90;999.90;;;;;;;;;;4953899;29;20235;-78
2023/07/18 13:36:01;;;;;;;1999.90;999.90;;;;;;;;;;4953249;28;20236;-77
2023/07/18 13:38:46;;;;;;;1999.90;999.90;;;;;;;;;;4952331;29;20212;-77
2023/07/18 13:41:31;;;;;;;1999.90;999.90;;;;;;;;;;4948870;29;20213;-78
2023/07/18 13:44:17;;;;;;;1999.90;999.90;;;;;;;;;;4950418;29;20208;-78
2023/07/18 13:47:03;;;;;;;1999.90;999.90;;;;;;;;;;4952844;28;20224;-78
2023/07/18 13:49:48;;;;;;;1999.90;999.90;;;;;;;;;;4950627;29;20225;-77
2023/07/18 13:52:33;;;;;;;1999.90;999.90;;;;;;;;;;4951684;29;20248;-77
2023/07/18 13:55:18;;;;;;;1999.90;999.90;;;;;;;;;;4948744;29;20224;-78
2023/07/18 13:58:03;;;;;;;1999.90;999.90;;;;;;;;;;4948892;29;21005;-78
2023/07/18 14:00:49;;;;;;;1999.90;999.90;;;;;;;;;;4949015;29;20205;-78
2023/07/18 14:03:34;;;;;;;1999.90;999.90;;;;;;;;;;4947981;29;20386;-79
2023/07/18 14:06:20;;;;;;;1999.90;999.90;;;;;;;;;;4947102;29;20288;-78
2023/07/18 14:09:05;;;;;;;1999.90;999.90;;;;;;;;;;4950545;29;20211;-77
2023/07/18 14:11:50;;;;;;;1999.90;999.90;;;;;;;;;;4940370;29;20221;-78
2023/07/18 14:14:35;;;;;;;1999.90;999.90;;;;;;;;;;4944992;28;20207;-76
2023/07/18 14:17:21;;;;;;;1999.90;999.90;;;;;;;;;;4952241;29;20209;-77
2023/07/18 14:20:06;;;;;;;1999.90;999.90;;;;;;;;;;4948451;29;20280;-79
2023/07/18 14:22:51;;;;;;;1999.90;999.90;;;;;;;;;;4939415;29;20410;-78
2023/07/18 14:25:37;;;;;;;1999.90;999.90;;;;;;;;;;4952570;29;20338;-79
2023/07/18 14:28:22;;;;;;;1999.90;999.90;;;;;;;;;;4953452;29;20602;-77
2023/07/18 14:31:07;;;;;;;1999.90;999.90;;;;;;;;;;4951273;28;20305;-77
2023/07/18 14:33:53;;;;;;;1999.90;999.90;;;;;;;;;;4949565;29;20575;-78
2023/07/18 14:36:39;;;;;;;1999.90;999.90;;;;;;;;;;4920564;28;1055977;-78
2023/07/18 14:39:23;;;;;;;1999.90;999.90;;;;;;;;;;4956184;29;20217;-78
2023/07/18 14:42:08;;;;;;;1999.90;999.90;;;;;;;;;;4956602;29;20212;-77
2023/07/18 14:44:53;;;;;;;1999.90;999.90;;;;;;;;;;4955483;28;20305;-78
2023/07/18 14:47:38;;;;;;;1999.90;999.90;;;;;;;;;;4956269;29;20574;-77
2023/07/18 14:50:25;;;;;;;1999.90;999.90;;;;;;;;;;4951355;29;20233;-78
2023/07/18 14:53:10;;;;;;;1999.90;999.90;;;;;;;;;;4951064;29;20229;-75
2023/07/18 14:55:55;;;;;;;1999.90;999.90;;;;;;;;;;4948623;29;20395;-75
2023/07/18 14:58:40;;;;;;;1999.90;999.90;;;;;;;;;;4945119;29;20341;-74
2023/07/18 15:01:25;;;;;;;1999.90;999.90;;;;;;;;;;4950296;29;20364;-74
2023/07/18 15:04:10;;;;;;;1999.90;999.90;;;;;;;;;;4950350;29;20213;-73
2023/07/18 15:06:57;;;;;;;1999.90;999.90;;;;;;;;;;4949707;29;20606;-75
2023/07/18 15:09:42;;;;;;;1999.90;999.90;;;;;;;;;;4955176;29;20229;-76
2023/07/18 15:12:26;;;;;;;1999.90;999.90;;;;;;;;;;4955037;29;20220;-76
2023/07/18 15:15:12;;;;;;;1999.90;999.90;;;;;;;;;;4955217;28;20322;-75
2023/07/18 15:17:57;;;;;;;1999.90;999.90;;;;;;;;;;4947928;29;20425;-75
2023/07/18 15:20:42;;;;;;;1999.90;999.90;;;;;;;;;;4944717;29;20842;-74
2023/07/18 15:23:28;;;;;;;1999.90;999.90;;;;;;;;;;4953889;29;20213;-75
2023/07/18 15:26:14;;;;;;;1999.90;999.90;;;;;;;;;;4955285;29;20595;-75
2023/07/18 15:28:59;;;;;;;1999.90;999.90;;;;;;;;;;4952980;29;20713;-76
2023/07/18 15:31:44;;;;;;;1999.90;999.90;;;;;;;;;;4954287;29;20228;-75
2023/07/18 15:34:29;;;;;;;1999.90;999.90;;;;;;;;;;4953929;29;20309;-75
2023/07/18 15:37:14;;;;;;;1999.90;999.90;;;;;;;;;;4954794;29;20242;-75
2023/07/18 15:40:01;;;;;;;1999.90;999.90;;;;;;;;;;4949675;29;20208;-76
2023/07/18 15:42:46;;;;;;;1999.90;999.90;;;;;;;;;;4954148;28;20292;-75
2023/07/18 15:45:31;;;;;;;1999.90;999.90;;;;;;;;;;4953666;28;20232;-75
2023/07/18 15:48:16;;;;;;;1999.90;999.90;;;;;;;;;;4955904;29;20213;-75
2023/07/18 15:51:02;;;;;;;1999.90;999.90;;;;;;;;;;4948760;29;20452;-74
2023/07/18 15:53:47;;;;;;;1999.90;999.90;;;;;;;;;;4959005;29;20572;-74
2023/07/18 15:56:33;;;;;;;1999.90;999.90;;;;;;;;;;4955692;29;20796;-75
2023/07/18 15:59:18;;;;;;;1999.90;999.90;;;;;;;;;;4956128;29;20293;-75
2023/07/18 16:02:03;;;;;;;1999.90;999.90;;;;;;;;;;4948765;28;20213;-76
2023/07/18 16:04:48;;;;;;;1999.90;999.90;;;;;;;;;;4950239;28;20208;-75
2023/07/18 16:07:33;;;;;;;1999.90;999.90;;;;;;;;;;4950805;29;20605;-75
2023/07/18 16:10:19;;;;;;;1999.90;999.90;;;;;;;;;;4950351;29;20792;-75
2023/07/18 16:13:05;;;;;;;1999.90;999.90;;;;;;;;;;4949968;29;20813;-75
2023/07/18 16:15:50;;;;;;;1999.90;999.90;;;;;;;;;;4948162;29;20232;-75
2023/07/18 16:18:35;;;;;;;1999.90;999.90;;;;;;;;;;4950688;29;20215;-75
2023/07/18 16:21:20;;;;;;;1999.90;999.90;;;;;;;;;;4947460;29;20213;-76
2023/07/18 16:24:05;;;;;;;1999.90;999.90;;;;;;;;;;4949653;29;20216;-75
2023/07/18 16:26:50;;;;;;;1999.90;999.90;;;;;;;;;;4950967;29;20237;-75
2023/07/18 16:29:37;;;;;;;1999.90;999.90;;;;;;;;;;4950581;29;20268;-76
2023/07/18 16:32:21;;;;;;;1999.90;999.90;;;;;;;;;;4952513;29;20216;-75
2023/07/18 16:35:07;;;;;;;1999.90;999.90;;;;;;;;;;4949278;29;20379;-75
2023/07/18 16:37:52;;;;;;;1999.90;999.90;;;;;;;;;;4950583;29;20283;-75
2023/07/18 16:40:37;;;;;;;1999.90;999.90;;;;;;;;;;4949438;29;20223;-74
2023/07/18 16:43:22;;;;;;;1999.90;999.90;;;;;;;;;;4952447;29;20216;-75
2023/07/18 16:46:09;;;;;;;1999.90;999.90;;;;;;;;;;4949553;28;20444;-75
2023/07/18 16:48:54;;;;;;;1999.90;999.90;;;;;;;;;;4952926;29;20470;-76
2023/07/18 16:51:39;;;;;;;1999.90;999.90;;;;;;;;;;4954621;29;20724;-75
2023/07/18 16:54:24;;;;;;;1999.90;999.90;;;;;;;;;;4952284;28;20219;-77
2023/07/18 16:57:10;;;;;;;1999.90;999.90;;;;;;;;;;4950953;29;20707;-76